Time;durP1;ratioP1;P1;durP2;ratioP2;P2;SDS_P1;SDS_P2;PMS_P1;PMS_P2;Temp;Humidity;BMP_temperature;BMP_pressure;BME280_temperature;BME280_humidity;BME280_pressure;Samples;Min_cycle;Max_cycle;Signal;HPM_P1;HPM_P2
2022/07/09 00:00:06;;;;;;;4.28;1.70;;;17.80;81.00;;;;;;5026846;28;20013;-86
2022/07/09 00:02:31;;;;;;;3.17;1.40;;;17.80;80.90;;;;;;5032338;28;20021;-87
2022/07/09 00:04:57;;;;;;;5.53;1.85;;;17.70;81.80;;;;;;5017699;28;20021;-86
2022/07/09 00:07:23;;;;;;;6.00;1.92;;;17.70;82.30;;;;;;5024743;28;20514;-87
2022/07/09 00:09:48;;;;;;;2.78;1.70;;;17.60;82.30;;;;;;5013523;28;20021;-87
2022/07/09 00:12:14;;;;;;;3.15;1.90;;;17.60;83.50;;;;;;5028206;28;20031;-87
2022/07/09 00:14:40;;;;;;;2.88;1.50;;;17.60;82.90;;;;;;5016771;28;20045;-87
2022/07/09 00:17:05;;;;;;;4.13;1.60;;;17.60;82.80;;;;;;5027711;28;20072;-87
2022/07/09 00:19:31;;;;;;;3.72;1.70;;;17.50;82.90;;;;;;5021697;28;20407;-87
2022/07/09 00:21:57;;;;;;;4.63;1.98;;;17.50;83.40;;;;;;5020711;28;20446;-87
2022/07/09 00:24:22;;;;;;;6.57;2.05;;;17.50;83.90;;;;;;5028325;28;20026;-86
2022/07/09 00:26:48;;;;;;;5.20;1.83;;;17.40;84.00;;;;;;5029412;28;20034;-87
2022/07/09 00:29:13;;;;;;;5.15;1.83;;;17.30;84.20;;;;;;5018442;28;20454;-87
2022/07/09 00:31:39;;;;;;;6.22;1.70;;;17.30;84.60;;;;;;5022672;28;20022;-87
2022/07/09 00:34:04;;;;;;;5.40;2.10;;;17.20;84.70;;;;;;5027262;28;20029;-87
2022/07/09 00:36:30;;;;;;;4.50;1.77;;;17.10;85.40;;;;;;5016187;28;20473;-87
2022/07/09 00:38:56;;;;;;;3.63;1.90;;;17.10;85.50;;;;;;5029195;28;20014;-86
2022/07/09 00:41:22;;;;;;;3.47;2.00;;;17.10;85.40;;;;;;5013823;28;20069;-87
2022/07/09 00:43:48;;;;;;;3.58;1.92;;;17.20;85.40;;;;;;5020491;28;20088;-86
2022/07/09 00:46:15;;;;;;;3.90;2.10;;;17.10;85.50;;;;;;5028117;28;20014;-86
2022/07/09 00:48:40;;;;;;;2.15;1.75;;;17.10;85.30;;;;;;5014019;28;20046;-87
2022/07/09 00:51:07;;;;;;;1.85;1.73;;;17.10;85.80;;;;;;5018258;28;20021;-87
2022/07/09 00:53:33;;;;;;;4.18;1.90;;;17.00;86.00;;;;;;5031567;28;20032;-87
2022/07/09 00:56:00;;;;;;;3.55;2.08;;;16.90;86.10;;;;;;5020151;28;20029;-86
2022/07/09 00:58:27;;;;;;;6.72;2.35;;;16.90;86.60;;;;;;5028874;28;20123;-86
2022/07/09 01:00:53;;;;;;;3.75;2.50;;;16.90;86.50;;;;;;5016470;28;20029;-87
2022/07/09 01:03:19;;;;;;;4.95;2.33;;;16.90;86.90;;;;;;5025106;28;20447;-87
2022/07/09 01:05:45;;;;;;;4.32;2.40;;;16.80;86.60;;;;;;5023350;28;20092;-87
2022/07/09 01:08:11;;;;;;;5.28;2.80;;;16.80;87.40;;;;;;5017788;28;20026;-88
2022/07/09 01:10:37;;;;;;;4.80;2.42;;;16.80;87.50;;;;;;5028418;28;20389;-87
2022/07/09 01:13:04;;;;;;;3.97;2.30;;;16.80;87.60;;;;;;5017122;28;20105;-87
2022/07/09 01:15:30;;;;;;;3.28;2.47;;;16.70;87.20;;;;;;5023856;28;20098;-87
2022/07/09 01:17:58;;;;;;;3.03;1.90;;;16.70;87.20;;;;;;5028775;28;20363;-87
2022/07/09 01:20:25;;;;;;;4.50;2.10;;;16.70;87.70;;;;;;5020258;28;20458;-87
2022/07/09 01:22:51;;;;;;;3.05;1.92;;;16.70;87.90;;;;;;5035992;28;20033;-87
2022/07/09 01:25:18;;;;;;;4.03;2.25;;;16.70;88.00;;;;;;5029139;28;20566;-87
2022/07/09 01:27:45;;;;;;;4.40;2.08;;;16.70;88.30;;;;;;5027607;28;20044;-87
2022/07/09 01:30:10;;;;;;;4.00;2.28;;;16.70;88.00;;;;;;5021609;28;20018;-88
2022/07/09 01:32:36;;;;;;;4.57;2.25;;;16.60;88.50;;;;;;5033432;28;20025;-86
2022/07/09 01:35:02;;;;;;;3.65;2.15;;;16.50;88.90;;;;;;5021230;28;20028;-86
2022/07/09 01:37:28;;;;;;;4.10;2.13;;;16.40;89.40;;;;;;5035551;28;20049;-87
2022/07/09 01:39:54;;;;;;;3.13;2.33;;;16.40;89.20;;;;;;5024944;28;20447;-86
2022/07/09 01:42:19;;;;;;;3.47;2.20;;;16.50;89.10;;;;;;5030985;28;20029;-87
2022/07/09 01:44:46;;;;;;;5.68;1.95;;;16.50;89.40;;;;;;5026553;28;20481;-87
2022/07/09 01:47:14;;;;;;;7.57;2.30;;;16.30;90.00;;;;;;5015315;28;20466;-87
2022/07/09 01:49:40;;;;;;;4.30;1.98;;;16.20;90.20;;;;;;5025373;28;20478;-87
2022/07/09 01:52:06;;;;;;;3.35;1.92;;;16.20;90.40;;;;;;5023019;28;20037;-87
2022/07/09 01:54:32;;;;;;;4.68;2.00;;;16.20;90.60;;;;;;5016752;28;20518;-86
2022/07/09 01:56:57;;;;;;;6.70;2.22;;;16.20;90.50;;;;;;5031397;28;20018;-86
2022/07/09 01:59:23;;;;;;;4.30;2.20;;;16.20;90.50;;;;;;5023281;28;20481;-87
2022/07/09 02:01:48;;;;;;;2.65;1.77;;;16.20;90.60;;;;;;5024575;28;20049;-86
2022/07/09 02:04:14;;;;;;;5.50;1.90;;;16.10;90.70;;;;;;5029466;28;20370;-86
2022/07/09 02:06:39;;;;;;;3.25;1.77;;;16.20;90.70;;;;;;5019520;28;20022;-86
2022/07/09 02:09:05;;;;;;;4.32;1.77;;;16.10;90.90;;;;;;5030707;28;20021;-87
2022/07/09 02:11:31;;;;;;;4.82;1.92;;;16.10;90.80;;;;;;5023216;28;20028;-86
2022/07/09 02:13:56;;;;;;;6.40;2.60;;;16.10;90.90;;;;;;5022970;28;20030;-87
2022/07/09 02:16:22;;;;;;;6.40;1.90;;;16.10;91.10;;;;;;5030241;28;20022;-86
2022/07/09 02:18:47;;;;;;;4.68;2.22;;;16.10;91.30;;;;;;5018936;28;20076;-87
2022/07/09 02:21:13;;;;;;;4.78;2.42;;;16.10;91.10;;;;;;5028692;28;20033;-87
2022/07/09 02:23:39;;;;;;;3.20;1.90;;;16.00;91.20;;;;;;5026400;28;20447;-87
2022/07/09 02:26:04;;;;;;;3.38;1.92;;;16.00;91.20;;;;;;5034870;28;20060;-87
2022/07/09 02:28:30;;;;;;;3.42;2.42;;;16.00;91.40;;;;;;5017222;28;20560;-86
2022/07/09 02:30:57;;;;;;;4.90;2.33;;;15.90;91.50;;;;;;5030602;28;20481;-85
2022/07/09 02:33:23;;;;;;;4.30;2.10;;;16.00;91.60;;;;;;5021742;28;20025;-86
2022/07/09 02:35:49;;;;;;;5.90;2.40;;;15.90;91.60;;;;;;5023735;28;20025;-86
2022/07/09 02:38:14;;;;;;;4.60;1.92;;;15.90;91.70;;;;;;5029334;28;20025;-87
2022/07/09 02:40:40;;;;;;;3.88;2.05;;;15.90;91.70;;;;;;5018586;28;20026;-86
2022/07/09 02:43:05;;;;;;;3.67;2.03;;;15.90;91.80;;;;;;5029625;28;20068;-87
2022/07/09 02:45:31;;;;;;;4.22;1.77;;;15.90;91.80;;;;;;5023435;28;20025;-87
2022/07/09 02:47:57;;;;;;;4.85;1.98;;;15.80;92.00;;;;;;5014409;28;20437;-86
2022/07/09 02:50:22;;;;;;;3.83;1.90;;;15.80;92.00;;;;;;5029227;28;20031;-87
2022/07/09 02:52:48;;;;;;;4.10;2.00;;;15.80;92.10;;;;;;5017719;28;20508;-86
2022/07/09 02:55:14;;;;;;;5.00;1.98;;;15.70;92.20;;;;;;5028314;28;20086;-87
2022/07/09 02:57:39;;;;;;;4.07;1.88;;;15.70;92.20;;;;;;5024278;28;20102;-87
2022/07/09 03:00:06;;;;;;;3.42;2.22;;;15.70;92.30;;;;;;5020832;28;20022;-85
2022/07/09 03:02:31;;;;;;;5.88;1.83;;;15.70;92.40;;;;;;5030607;28;20029;-87
2022/07/09 03:04:57;;;;;;;4.22;2.00;;;15.70;92.50;;;;;;5019572;28;20496;-85
2022/07/09 03:07:23;;;;;;;2.97;2.03;;;15.70;92.50;;;;;;5034301;28;20202;-87
2022/07/09 03:09:49;;;;;;;4.32;1.90;;;15.60;92.60;;;;;;5022848;28;20034;-86
2022/07/09 03:12:15;;;;;;;3.08;1.80;;;15.60;92.70;;;;;;5014083;28;20034;-87
2022/07/09 03:14:40;;;;;;;6.35;2.17;;;15.50;93.00;;;;;;5031970;28;20025;-86
2022/07/09 03:17:06;;;;;;;5.28;2.35;;;15.50;93.20;;;;;;5028884;28;20473;-86
2022/07/09 03:19:32;;;;;;;6.20;2.35;;;15.40;93.40;;;;;;5022353;28;20052;-86
2022/07/09 03:21:58;;;;;;;3.83;1.73;;;15.40;93.40;;;;;;5034267;28;20083;-86
2022/07/09 03:24:23;;;;;;;3.22;1.80;;;15.40;93.50;;;;;;5018896;28;20029;-86
2022/07/09 03:26:49;;;;;;;6.00;1.95;;;15.50;93.60;;;;;;5018491;28;20064;-86
2022/07/09 03:29:15;;;;;;;3.55;1.75;;;15.40;93.70;;;;;;5028131;28;20022;-87
2022/07/09 03:31:41;;;;;;;4.22;1.90;;;15.30;93.90;;;;;;5023479;28;20048;-86
2022/07/09 03:34:06;;;;;;;3.45;1.80;;;15.30;93.90;;;;;;5019933;28;20022;-86
2022/07/09 03:36:32;;;;;;;4.60;1.80;;;15.40;93.90;;;;;;5030058;28;20409;-86
2022/07/09 03:38:58;;;;;;;3.88;2.00;;;15.40;93.80;;;;;;5018052;28;20112;-86
2022/07/09 03:41:24;;;;;;;4.35;2.38;;;15.40;93.90;;;;;;5025580;28;20085;-87
2022/07/09 03:43:49;;;;;;;2.97;2.03;;;15.30;93.90;;;;;;5020931;28;20060;-86
2022/07/09 03:46:15;;;;;;;4.53;2.00;;;15.30;94.20;;;;;;5029029;28;20366;-86
2022/07/09 03:48:40;;;;;;;3.65;1.95;;;15.30;94.00;;;;;;5032894;28;20050;-86
2022/07/09 03:51:06;;;;;;;2.78;2.15;;;15.30;93.90;;;;;;5013425;28;20051;-86
2022/07/09 03:53:32;;;;;;;5.90;1.90;;;15.30;93.90;;;;;;5021621;28;20483;-86
2022/07/09 03:55:58;;;;;;;4.40;2.10;;;15.30;94.00;;;;;;5033834;28;20033;-86
2022/07/09 03:58:23;;;;;;;6.28;1.88;;;15.30;94.00;;;;;;5018009;28;20386;-86
2022/07/09 04:00:49;;;;;;;5.03;2.33;;;15.40;93.90;;;;;;5032586;28;20026;-86
2022/07/09 04:03:15;;;;;;;4.40;1.90;;;15.40;94.00;;;;;;5032597;28;20110;-87
2022/07/09 04:05:41;;;;;;;3.47;1.80;;;15.40;94.00;;;;;;5023488;28;20026;-85
2022/07/09 04:08:07;;;;;;;5.50;2.05;;;15.40;94.00;;;;;;5027087;28;20398;-86
2022/07/09 04:10:32;;;;;;;2.65;1.55;;;15.50;94.20;;;;;;5016560;28;20034;-86
2022/07/09 04:12:58;;;;;;;4.78;2.40;;;15.40;94.10;;;;;;5028983;28;20045;-86
2022/07/09 04:15:24;;;;;;;5.80;1.85;;;15.40;94.10;;;;;;5020482;28;20025;-86
2022/07/09 04:17:49;;;;;;;6.30;2.00;;;15.50;94.20;;;;;;5021933;28;20045;-85
2022/07/09 04:20:15;;;;;;;2.80;1.80;;;15.50;94.20;;;;;;5028026;28;20109;-86
2022/07/09 04:22:40;;;;;;;5.05;2.30;;;15.40;94.40;;;;;;5017815;28;20027;-85
2022/07/09 04:25:06;;;;;;;2.88;1.92;;;15.40;94.50;;;;;;5034090;28;20013;-86
2022/07/09 04:27:34;;;;;;;3.10;1.60;;;15.40;94.50;;;;;;5024101;28;20143;-86
2022/07/09 04:29:59;;;;;;;3.22;1.70;;;15.30;94.70;;;;;;5013349;28;20018;-86
2022/07/09 04:32:25;;;;;;;5.10;1.83;;;15.30;94.80;;;;;;5028254;28;20029;-86
2022/07/09 04:34:50;;;;;;;3.50;1.80;;;15.20;94.90;;;;;;5016324;28;20474;-86
2022/07/09 04:37:16;;;;;;;4.20;2.00;;;15.20;95.00;;;;;;5032155;28;20108;-86
2022/07/09 04:39:41;;;;;;;5.78;2.00;;;15.30;95.00;;;;;;5022880;28;20026;-86
2022/07/09 04:42:09;;;;;;;3.72;1.80;;;15.30;95.10;;;;;;5026472;28;20036;-86
2022/07/09 04:44:34;;;;;;;3.13;1.90;;;15.30;95.00;;;;;;5024083;28;20021;-86
2022/07/09 04:47:00;;;;;;;6.22;1.70;;;15.40;95.00;;;;;;5013832;28;20024;-86
2022/07/09 04:49:26;;;;;;;6.38;1.95;;;15.40;95.00;;;;;;5012497;28;20022;-86
2022/07/09 04:51:51;;;;;;;6.07;2.22;;;15.40;94.90;;;;;;5015882;28;20037;-86
2022/07/09 04:54:17;;;;;;;4.15;2.17;;;15.40;94.90;;;;;;5031228;28;20018;-86
2022/07/09 04:56:42;;;;;;;5.43;2.25;;;15.50;94.90;;;;;;5020354;28;20025;-87
2022/07/09 04:59:08;;;;;;;4.25;2.25;;;15.60;94.90;;;;;;5030819;28;20010;-87
2022/07/09 05:01:34;;;;;;;4.68;2.00;;;15.60;94.90;;;;;;5025243;28;20040;-86
2022/07/09 05:03:59;;;;;;;3.88;1.80;;;15.70;94.80;;;;;;5023887;28;20076;-87
2022/07/09 05:06:25;;;;;;;7.72;2.40;;;15.70;94.90;;;;;;5032039;28;20049;-87
2022/07/09 05:08:51;;;;;;;5.07;2.10;;;15.70;95.30;;;;;;5019511;28;20033;-84
2022/07/09 05:11:17;;;;;;;3.97;2.30;;;15.70;95.50;;;;;;5024290;28;20478;-87
2022/07/09 05:13:42;;;;;;;3.80;1.70;;;15.70;95.70;;;;;;5022093;28;20430;-86
2022/07/09 05:16:08;;;;;;;3.72;2.30;;;15.80;95.80;;;;;;5030077;28;20033;-86
2022/07/09 05:18:35;;;;;;;3.38;2.08;;;15.80;95.80;;;;;;5034686;28;20021;-87
2022/07/09 05:21:00;;;;;;;3.97;2.30;;;15.90;95.90;;;;;;5020936;28;20021;-87
2022/07/09 05:23:26;;;;;;;5.38;2.22;;;15.90;96.10;;;;;;5028450;28;20101;-87
2022/07/09 05:25:53;;;;;;;6.93;2.40;;;16.00;96.10;;;;;;5028620;28;20028;-87
2022/07/09 05:28:18;;;;;;;3.22;1.83;;;16.10;96.30;;;;;;5020196;28;20469;-86
2022/07/09 05:30:44;;;;;;;4.63;2.40;;;16.10;96.50;;;;;;5033305;28;20108;-87
2022/07/09 05:33:10;;;;;;;5.32;1.95;;;16.10;96.50;;;;;;5023031;28;20078;-86
2022/07/09 05:35:35;;;;;;;5.30;2.20;;;16.20;96.70;;;;;;5026202;28;20033;-87
2022/07/09 05:38:01;;;;;;;4.22;2.55;;;16.20;97.00;;;;;;5029640;28;20085;-86
2022/07/09 05:40:27;;;;;;;3.75;2.13;;;16.20;97.10;;;;;;5019073;28;20022;-87
2022/07/09 05:42:53;;;;;;;5.38;2.78;;;16.30;97.10;;;;;;5016270;28;20402;-87
2022/07/09 05:45:18;;;;;;;4.07;2.40;;;16.40;97.40;;;;;;5025924;28;20029;-86
2022/07/09 05:47:44;;;;;;;5.65;2.50;;;16.40;97.40;;;;;;5016621;28;20054;-87
2022/07/09 05:50:10;;;;;;;4.32;2.35;;;16.40;97.60;;;;;;5029633;28;20033;-87
2022/07/09 05:52:36;;;;;;;3.53;2.30;;;16.40;97.90;;;;;;5018277;28;20028;-87
2022/07/09 05:55:03;;;;;;;6.65;2.90;;;16.50;97.90;;;;;;5031751;28;20021;-87
2022/07/09 05:57:29;;;;;;;5.30;2.38;;;16.50;98.00;;;;;;5023233;28;20465;-87
2022/07/09 05:59:55;;;;;;;7.68;2.90;;;16.60;98.10;;;;;;5024438;28;20025;-87
2022/07/09 06:02:21;;;;;;;3.63;2.20;;;16.70;97.80;;;;;;5029200;28;20033;-87
2022/07/09 06:04:47;;;;;;;3.50;2.53;;;16.90;97.70;;;;;;5017643;28;20041;-87
2022/07/09 06:07:13;;;;;;;6.65;3.00;;;16.90;97.50;;;;;;5021328;28;20021;-88
2022/07/09 06:09:39;;;;;;;4.35;2.63;;;17.00;97.70;;;;;;5035699;28;20025;-86
2022/07/09 06:12:05;;;;;;;5.30;2.60;;;17.10;97.40;;;;;;5021459;28;20026;-87
2022/07/09 06:14:31;;;;;;;4.78;2.42;;;17.10;97.50;;;;;;5031251;28;20053;-87
2022/07/09 06:16:56;;;;;;;5.75;2.47;;;17.10;97.80;;;;;;5019323;28;20450;-87
2022/07/09 06:19:22;;;;;;;5.13;2.53;;;17.10;98.00;;;;;;5027363;28;20014;-86
2022/07/09 06:21:48;;;;;;;7.03;3.08;;;17.10;97.90;;;;;;5026341;28;20029;-87
2022/07/09 06:24:14;;;;;;;4.38;3.17;;;17.20;98.10;;;;;;5021574;28;20375;-87
2022/07/09 06:26:39;;;;;;;6.70;3.20;;;17.20;98.20;;;;;;5031328;28;20135;-87
2022/07/09 06:29:05;;;;;;;6.32;3.38;;;17.20;98.00;;;;;;5020415;28;20454;-87
2022/07/09 06:31:31;;;;;;;5.13;3.10;;;17.30;97.80;;;;;;5034865;28;20345;-87
2022/07/09 06:33:58;;;;;;;4.63;2.60;;;17.30;97.60;;;;;;5023602;28;20434;-87
2022/07/09 06:36:23;;;;;;;5.55;2.35;;;17.40;97.50;;;;;;5030109;28;20116;-87
2022/07/09 06:41:33;;;;;;;5.97;2.47;;;17.50;97.70;;;;;;5035283;28;20120;-87
2022/07/09 06:43:59;;;;;;;5.18;2.22;;;17.60;97.40;;;;;;5028482;28;20092;-87
2022/07/09 06:46:24;;;;;;;5.30;2.75;;;17.60;97.10;;;;;;5017754;28;20451;-88
2022/07/09 06:48:50;;;;;;;4.00;2.30;;;17.70;97.00;;;;;;5015743;28;20049;-87
2022/07/09 06:51:15;;;;;;;5.35;2.47;;;17.80;96.90;;;;;;5021564;28;20100;-87
2022/07/09 06:53:41;;;;;;;6.07;2.22;;;17.70;97.00;;;;;;5007386;28;20060;-87
2022/07/09 06:56:07;;;;;;;5.38;2.30;;;17.80;96.70;;;;;;5027721;28;20446;-87
2022/07/09 06:58:33;;;;;;;3.65;2.03;;;17.90;96.80;;;;;;5018219;28;20479;-87
2022/07/09 07:00:58;;;;;;;6.57;2.22;;;17.90;96.60;;;;;;5030177;28;20056;-87
2022/07/09 07:03:24;;;;;;;4.25;2.22;;;18.00;96.40;;;;;;5020978;28;20296;-87
2022/07/09 07:05:50;;;;;;;5.25;2.35;;;18.00;96.50;;;;;;5022239;28;20073;-86
2022/07/09 07:08:17;;;;;;;4.82;2.58;;;18.10;96.50;;;;;;5013847;28;20026;-87
2022/07/09 07:10:43;;;;;;;3.85;2.40;;;18.10;96.40;;;;;;5031537;28;20018;-87
2022/07/09 07:13:10;;;;;;;6.35;2.53;;;18.20;96.50;;;;;;5020177;28;20524;-88
2022/07/09 07:15:36;;;;;;;4.72;2.55;;;18.20;96.50;;;;;;5023631;28;20451;-87
2022/07/09 07:18:03;;;;;;;4.68;2.53;;;18.30;96.60;;;;;;5026640;28;20032;-88
2022/07/09 07:20:28;;;;;;;6.20;2.25;;;18.40;96.50;;;;;;5016983;28;20053;-88
2022/07/09 07:22:54;;;;;;;5.72;2.30;;;18.40;96.10;;;;;;5031211;28;20018;-86
2022/07/09 07:25:20;;;;;;;4.68;2.63;;;18.40;96.00;;;;;;5020752;28;20018;-88
2022/07/09 07:27:46;;;;;;;6.07;2.13;;;18.50;96.10;;;;;;5022717;28;20028;-87
2022/07/09 07:30:12;;;;;;;5.32;2.10;;;18.50;95.80;;;;;;5027382;28;20025;-90
2022/07/09 07:32:38;;;;;;;3.30;2.00;;;18.60;95.30;;;;;;5017985;28;20022;-88
2022/07/09 07:35:04;;;;;;;6.38;1.83;;;18.70;95.00;;;;;;5029660;28;20116;-88
2022/07/09 07:37:31;;;;;;;3.63;1.80;;;18.70;95.00;;;;;;5021865;28;20056;-88
2022/07/09 07:39:57;;;;;;;4.28;1.80;;;18.70;95.20;;;;;;5021668;28;20022;-88
2022/07/09 07:42:23;;;;;;;5.15;1.83;;;18.70;95.10;;;;;;5028953;28;20025;-88
2022/07/09 07:44:49;;;;;;;8.57;1.92;;;18.80;95.00;;;;;;5018020;28;20017;-88
2022/07/09 07:47:14;;;;;;;6.75;2.22;;;18.80;94.60;;;;;;5025454;28;20691;-89
2022/07/09 07:49:40;;;;;;;5.93;2.90;;;18.90;94.60;;;;;;5032302;28;20040;-88
2022/07/09 07:52:06;;;;;;;6.32;2.20;;;19.00;94.40;;;;;;5028726;28;20040;-88
2022/07/09 07:54:33;;;;;;;6.07;2.72;;;19.10;94.20;;;;;;5020367;28;20030;-88
2022/07/09 07:56:58;;;;;;;4.93;2.28;;;19.20;93.90;;;;;;5016877;28;20025;-89
2022/07/09 07:59:24;;;;;;;4.15;1.98;;;19.20;94.30;;;;;;5017894;28;20079;-89
2022/07/09 08:01:50;;;;;;;4.95;1.92;;;19.30;94.50;;;;;;5023944;28;20083;-88
2022/07/09 08:04:15;;;;;;;3.17;1.75;;;19.30;94.10;;;;;;5031929;28;20482;-89
2022/07/09 08:06:41;;;;;;;4.75;1.95;;;19.30;94.00;;;;;;5031774;28;20021;-88
2022/07/09 08:09:07;;;;;;;4.90;1.77;;;19.30;93.70;;;;;;5017662;28;20060;-88
2022/07/09 08:11:32;;;;;;;3.25;1.45;;;19.30;93.50;;;;;;5028622;28;20057;-90
2022/07/09 08:13:58;;;;;;;7.00;1.67;;;19.30;93.60;;;;;;5032499;28;20083;-88
2022/07/09 08:16:23;;;;;;;4.13;1.50;;;19.40;93.50;;;;;;5034463;28;20496;-89
2022/07/09 08:18:49;;;;;;;3.60;1.50;;;19.40;93.50;;;;;;5032874;28;20045;-88
2022/07/09 08:21:15;;;;;;;8.15;1.67;;;19.50;93.10;;;;;;5033189;28;20090;-90
2022/07/09 08:23:56;;;;;;;4.40;1.50;;;19.60;92.90;;;;;;5027049;28;20083;-88
2022/07/09 08:26:24;;;;;;;5.50;1.58;;;19.70;93.00;;;;;;5032103;28;20471;-89
2022/07/09 08:28:50;;;;;;;5.00;1.50;;;19.70;93.00;;;;;;5033168;28;20032;-89
2022/07/09 08:31:16;;;;;;;4.03;1.83;;;19.80;92.90;;;;;;5022501;28;20117;-90
2022/07/09 08:33:42;;;;;;;3.38;1.50;;;19.90;93.30;;;;;;5014091;28;20467;-88
2022/07/09 08:36:08;;;;;;;2.88;1.58;;;19.90;92.80;;;;;;5013240;28;20033;-89
2022/07/09 08:38:34;;;;;;;5.50;1.50;;;20.00;92.60;;;;;;5012902;28;20026;-89
2022/07/09 08:41:03;;;;;;;5.50;1.98;;;20.00;92.50;;;;;;5016295;28;20037;-89
2022/07/09 08:43:32;;;;;;;2.97;1.30;;;20.10;92.70;;;;;;5021995;28;20049;-89
2022/07/09 08:45:58;;;;;;;4.32;1.30;;;20.10;92.10;;;;;;5013223;28;20442;-88
2022/07/09 08:48:24;;;;;;;2.20;1.00;;;20.20;91.60;;;;;;5028681;28;20050;-88
2022/07/09 08:50:51;;;;;;;2.88;1.10;;;20.30;91.20;;;;;;5016379;28;20418;-89
2022/07/09 08:53:18;;;;;;;1.13;0.80;;;20.30;90.90;;;;;;5028291;28;20083;-89
2022/07/09 08:55:45;;;;;;;1.13;0.90;;;20.30;90.80;;;;;;5018488;28;20014;-89
2022/07/09 08:58:13;;;;;;;2.05;0.82;;;20.40;90.80;;;;;;5025226;28;20104;-89
2022/07/09 09:00:42;;;;;;;2.35;0.80;;;20.40;90.60;;;;;;5026500;28;20033;-89
2022/07/09 09:03:08;;;;;;;3.72;1.00;;;20.50;90.20;;;;;;5032368;28;20034;-89
2022/07/09 09:05:33;;;;;;;3.95;1.15;;;20.50;90.20;;;;;;5027508;28;20032;-89
2022/07/09 09:07:59;;;;;;;1.05;0.90;;;20.60;90.10;;;;;;5015648;28;20079;-88
2022/07/09 09:10:27;;;;;;;3.33;1.00;;;20.60;90.00;;;;;;5019177;28;20026;-89
2022/07/09 09:13:00;;;;;;;1.67;0.80;;;20.70;89.00;;;;;;5030642;28;20013;-90
2022/07/09 09:15:27;;;;;;;1.27;0.90;;;20.80;88.40;;;;;;5028158;28;20076;-89
2022/07/09 09:17:53;;;;;;;5.15;1.00;;;20.90;88.50;;;;;;5017135;28;20072;-89
2022/07/09 09:20:19;;;;;;;3.65;1.40;;;20.90;88.30;;;;;;5016596;28;20022;-88
2022/07/09 09:22:53;;;;;;;1.65;1.23;;;21.00;88.20;;;;;;5016401;28;20116;-89
2022/07/09 09:25:20;;;;;;;5.55;1.30;;;21.10;88.20;;;;;;5015020;28;20024;-88
2022/07/09 09:27:53;;;;;;;1.15;0.70;;;21.10;88.60;;;;;;5015668;28;20102;-88
2022/07/09 09:30:19;;;;;;;3.08;0.80;;;21.10;87.60;;;;;;5017408;28;20120;-89
2022/07/09 09:32:55;;;;;;;2.13;0.90;;;21.20;87.60;;;;;;5016069;28;20082;-88
2022/07/09 09:35:21;;;;;;;3.90;1.02;;;21.30;86.50;;;;;;5021927;28;20032;-88
2022/07/09 09:37:46;;;;;;;5.63;1.10;;;21.30;86.80;;;;;;5030640;28;20120;-89
2022/07/09 09:40:13;;;;;;;4.50;1.02;;;21.40;86.70;;;;;;5030311;28;20108;-90
2022/07/09 09:42:41;;;;;;;1.67;1.02;;;21.50;86.60;;;;;;5031657;28;20032;-89
2022/07/09 09:45:08;;;;;;;2.35;1.02;;;21.60;86.00;;;;;;5021511;28;20052;-89
2022/07/09 09:47:34;;;;;;;2.90;0.90;;;21.60;85.70;;;;;;5027288;28;20053;-88
2022/07/09 09:50:01;;;;;;;2.08;0.95;;;21.50;85.40;;;;;;5032833;28;20416;-89
2022/07/09 09:52:26;;;;;;;3.25;0.80;;;21.50;86.00;;;;;;5021633;28;20343;-89
2022/07/09 09:54:54;;;;;;;4.07;1.13;;;21.60;85.40;;;;;;5018359;28;20021;-88
2022/07/09 09:57:24;;;;;;;4.68;1.08;;;21.70;85.40;;;;;;5018962;28;20024;-88
2022/07/09 09:59:52;;;;;;;2.47;1.10;;;21.70;86.00;;;;;;5018893;28;20022;-89
2022/07/09 10:02:20;;;;;;;6.38;0.80;;;21.80;86.00;;;;;;5027775;28;20132;-89
2022/07/09 10:04:46;;;;;;;2.70;0.90;;;21.90;85.20;;;;;;5032174;28;20048;-89
2022/07/09 10:07:14;;;;;;;1.75;0.80;;;22.00;84.60;;;;;;5031926;28;20454;-90
2022/07/09 10:09:40;;;;;;;0.90;0.77;;;22.00;84.20;;;;;;5031278;28;20038;-89
2022/07/09 10:12:09;;;;;;;0.65;0.50;;;22.00;83.90;;;;;;5030447;28;20101;-89
2022/07/09 10:14:36;;;;;;;1.15;0.57;;;22.00;81.40;;;;;;5028420;28;20375;-89
2022/07/09 10:17:16;;;;;;;1.63;0.43;;;22.00;80.70;;;;;;5029780;28;20026;-89
2022/07/09 10:20:03;;;;;;;2.95;0.65;;;22.10;80.60;;;;;;5018018;28;20366;-89
2022/07/09 10:22:40;;;;;;;0.65;0.40;;;22.30;79.30;;;;;;5024202;28;20087;-89
2022/07/09 10:25:07;;;;;;;0.85;0.50;;;22.30;77.70;;;;;;5028494;28;20025;-90
2022/07/09 10:27:49;;;;;;;1.48;0.50;;;22.30;77.50;;;;;;5020165;28;20032;-89
2022/07/09 10:30:30;;;;;;;1.55;0.60;;;22.40;76.60;;;;;;5022198;28;20088;-89
2022/07/09 10:33:04;;;;;;;3.17;0.60;;;22.60;76.20;;;;;;5017600;28;20113;-89
2022/07/09 10:35:30;;;;;;;2.35;0.60;;;22.70;77.00;;;;;;5026875;28;20022;-89
2022/07/09 10:37:56;;;;;;;3.22;0.60;;;22.70;77.40;;;;;;5022269;28;20542;-89
2022/07/09 10:40:24;;;;;;;2.78;1.33;;;22.80;77.40;;;;;;5031445;28;20026;-89
2022/07/09 10:43:04;;;;;;;5.60;1.60;;;22.90;76.30;;;;;;5022447;28;20032;-89
2022/07/09 10:45:41;;;;;;;2.00;0.95;;;22.90;76.00;;;;;;5025563;28;20045;-90
2022/07/09 10:48:11;;;;;;;0.90;0.50;;;23.00;76.70;;;;;;5027004;28;20042;-89
2022/07/09 10:50:40;;;;;;;2.25;0.80;;;23.10;77.40;;;;;;5027968;28;20044;-90
2022/07/09 10:53:06;;;;;;;1.33;0.70;;;23.10;77.00;;;;;;5024384;28;20018;-89
2022/07/09 10:55:31;;;;;;;1.10;0.70;;;23.20;77.30;;;;;;5026393;28;20105;-89
2022/07/09 10:57:58;;;;;;;3.35;0.90;;;23.30;76.60;;;;;;5019099;28;20448;-89
2022/07/09 11:00:29;;;;;;;2.17;0.70;;;23.40;76.50;;;;;;5032710;28;20029;-89
2022/07/09 11:03:00;;;;;;;1.77;0.65;;;23.60;76.30;;;;;;5018910;28;20028;-90
2022/07/09 11:05:30;;;;;;;1.73;0.70;;;23.80;76.40;;;;;;5017151;28;20041;-90
2022/07/09 11:07:56;;;;;;;3.38;1.10;;;23.80;75.10;;;;;;5017433;28;20017;-90
2022/07/09 11:10:22;;;;;;;1.20;0.70;;;23.80;75.00;;;;;;5019546;28;20025;-90
2022/07/09 11:12:48;;;;;;;3.08;1.05;;;23.70;74.90;;;;;;5024437;28;20029;-89
2022/07/09 11:15:21;;;;;;;1.52;0.75;;;23.60;74.80;;;;;;5023485;28;20021;-90
2022/07/09 11:17:58;;;;;;;4.30;1.10;;;23.50;75.20;;;;;;5031605;28;20052;-89
2022/07/09 11:20:24;;;;;;;3.78;0.90;;;23.40;75.70;;;;;;5027953;28;20037;-89
2022/07/09 11:22:50;;;;;;;2.85;1.00;;;23.40;75.70;;;;;;5026710;28;20029;-89
2022/07/09 11:25:16;;;;;;;5.38;0.73;;;23.40;75.80;;;;;;5016563;28;20044;-90
2022/07/09 11:27:43;;;;;;;2.30;0.88;;;23.40;76.30;;;;;;5017222;28;20467;-89
2022/07/09 11:30:15;;;;;;;2.42;0.95;;;23.40;76.10;;;;;;5018409;28;20032;-89
2022/07/09 11:32:44;;;;;;;3.92;1.00;;;23.40;76.10;;;;;;5022943;28;20102;-89
2022/07/09 11:35:11;;;;;;;1.80;0.70;;;23.50;76.10;;;;;;5017333;28;20053;-89
2022/07/09 11:37:38;;;;;;;2.00;0.70;;;23.60;75.70;;;;;;5017746;28;20022;-89
2022/07/09 11:40:04;;;;;;;2.50;1.00;;;23.50;75.40;;;;;;5005446;28;20022;-90
2022/07/09 11:42:30;;;;;;;2.30;0.98;;;23.50;75.40;;;;;;5028694;28;20029;-89
2022/07/09 11:45:02;;;;;;;3.47;0.93;;;23.60;76.20;;;;;;5020404;28;20028;-89
2022/07/09 11:47:38;;;;;;;;;;;23.70;75.30;;;;;;5016689;28;20042;-89
2022/07/09 11:50:10;;;;;;;1.17;0.77;;;23.90;75.80;;;;;;5016824;28;19944;-90
2022/07/09 11:52:42;;;;;;;2.03;1.00;;;23.90;76.10;;;;;;5027344;28;20028;-90
2022/07/09 11:55:09;;;;;;;1.52;0.90;;;23.90;76.10;;;;;;5028588;28;20029;-90
2022/07/09 11:57:36;;;;;;;1.80;0.90;;;23.90;77.20;;;;;;5019708;28;20044;-90
2022/07/09 12:00:27;;;;;;;2.80;0.90;;;24.10;76.90;;;;;;5016212;28;20033;-90
2022/07/09 12:02:57;;;;;;;1.70;1.02;;;24.20;76.40;;;;;;5016359;28;20029;-89
2022/07/09 12:05:35;;;;;;;2.50;0.90;;;24.40;76.10;;;;;;5020128;28;20025;-90
2022/07/09 12:08:04;;;;;;;2.45;1.17;;;24.40;75.10;;;;;;5029376;28;20063;-89
2022/07/09 12:10:32;;;;;;;2.65;1.05;;;24.40;73.90;;;;;;5028502;28;20455;-89
2022/07/09 12:12:59;;;;;;;2.05;0.90;;;24.50;72.90;;;;;;5028889;28;20017;-89
2022/07/09 12:15:26;;;;;;;4.45;0.95;;;24.50;72.10;;;;;;5029221;28;20021;-88
2022/07/09 12:17:59;;;;;;;1.90;1.00;;;24.50;73.20;;;;;;5029015;28;20067;-89
2022/07/09 12:20:27;;;;;;;1.23;0.90;;;24.60;70.90;;;;;;5025744;28;20025;-88
2022/07/09 12:22:53;;;;;;;3.67;1.17;;;24.60;71.40;;;;;;5019388;28;20022;-88
2022/07/09 12:25:19;;;;;;;1.00;0.90;;;24.80;71.00;;;;;;5028654;28;20024;-89
2022/07/09 12:27:45;;;;;;;1.98;0.90;;;24.80;70.30;;;;;;5028774;28;20029;-89
2022/07/09 12:30:12;;;;;;;1.80;0.80;;;24.90;70.90;;;;;;5025030;28;20451;-89
2022/07/09 12:32:38;;;;;;;2.08;0.93;;;25.10;70.80;;;;;;5026084;28;20525;-89
2022/07/09 12:35:05;;;;;;;0.77;0.50;;;25.20;71.00;;;;;;5028423;28;20052;-87
2022/07/09 12:37:30;;;;;;;3.13;0.80;;;25.40;69.40;;;;;;5030024;28;20099;-89
2022/07/09 12:39:56;;;;;;;1.55;0.85;;;25.40;69.10;;;;;;5025940;28;20474;-90
2022/07/09 12:42:21;;;;;;;0.93;0.85;;;25.50;68.30;;;;;;5033290;28;20061;-89
2022/07/09 12:44:48;;;;;;;3.83;1.00;;;25.60;67.30;;;;;;5020768;28;20029;-90
2022/07/09 12:47:14;;;;;;;1.98;0.90;;;25.60;67.30;;;;;;5022306;28;20038;-90